Time;durP1;ratioP1;P1;durP2;ratioP2;P2;SDS_P1;SDS_P2;PMS_P1;PMS_P2;Temp;Humidity;BMP_temperature;BMP_pressure;BME280_temperature;BME280_humidity;BME280_pressure;Samples;Min_cycle;Max_cycle;Signal;HPM_P1;HPM_P2
2023/01/23 00:01:49;;;;;;;9.37;8.57;;;2.60;1.00;;;;;;5072583;28;20206;-63
2023/01/23 00:04:14;;;;;;;10.87;9.30;;;2.70;1.00;;;;;;5062631;28;20555;-64
2023/01/23 00:06:40;;;;;;;10.93;10.07;;;2.60;1.00;;;;;;5052635;28;20257;-65
2023/01/23 00:09:07;;;;;;;9.20;8.50;;;2.60;1.00;;;;;;5061808;28;20194;-65
2023/01/23 00:11:33;;;;;;;11.43;10.37;;;2.60;1.00;;;;;;5074795;28;20251;-65
2023/01/23 00:14:00;;;;;;;10.10;9.40;;;2.60;1.00;;;;;;5067316;28;20256;-64
2023/01/23 00:16:28;;;;;;;9.50;8.77;;;2.70;1.00;;;;;;5052305;28;20225;-64
2023/01/23 00:18:55;;;;;;;13.50;10.73;;;2.70;1.00;;;;;;5056827;28;20170;-64
2023/01/23 00:21:23;;;;;;;8.80;8.10;;;2.70;1.00;;;;;;5071901;28;20162;-64
2023/01/23 00:23:52;;;;;;;10.17;9.20;;;2.70;1.00;;;;;;5070599;28;20655;-63
2023/01/23 00:26:21;;;;;;;9.20;8.53;;;2.70;1.00;;;;;;5052183;28;20202;-64
2023/01/23 00:28:47;;;;;;;10.77;9.80;;;2.70;1.00;;;;;;5052815;28;20328;-65
2023/01/23 00:31:16;;;;;;;9.10;8.27;;;2.70;1.00;;;;;;5052148;28;20186;-63
2023/01/23 00:33:42;;;;;;;10.40;9.60;;;2.70;1.00;;;;;;5069364;28;20205;-63
2023/01/23 00:36:09;;;;;;;9.93;9.03;;;2.70;1.00;;;;;;5071985;28;20190;-64
2023/01/23 00:38:35;;;;;;;7.87;7.37;;;2.70;1.00;;;;;;5055221;28;20187;-65
2023/01/23 00:41:02;;;;;;;9.40;8.70;;;2.70;1.00;;;;;;5051548;28;20220;-66
2023/01/23 00:43:29;;;;;;;9.00;8.37;;;2.60;1.00;;;;;;5066444;28;20269;-66
2023/01/23 00:45:55;;;;;;;8.47;7.80;;;2.60;1.00;;;;;;5071707;28;20240;-65
2023/01/23 00:48:20;;;;;;;9.47;8.77;;;2.60;1.00;;;;;;5058612;28;20240;-65
2023/01/23 00:50:47;;;;;;;9.47;8.77;;;2.60;1.00;;;;;;5051993;28;20179;-65
2023/01/23 00:53:13;;;;;;;9.40;8.53;;;2.60;1.00;;;;;;5062660;28;20296;-66
2023/01/23 00:55:39;;;;;;;11.13;10.17;;;2.60;1.00;;;;;;5071281;28;20206;-64
2023/01/23 00:58:05;;;;;;;18.40;10.40;;;2.60;1.00;;;;;;5061859;28;20179;-65
2023/01/23 01:00:30;;;;;;;16.53;9.43;;;2.60;1.00;;;;;;5050803;28;20175;-64
2023/01/23 01:02:56;;;;;;;11.27;10.13;;;2.60;1.00;;;;;;5058993;28;20186;-65
2023/01/23 01:05:22;;;;;;;10.67;9.70;;;2.60;1.00;;;;;;5071434;28;20879;-65
2023/01/23 01:07:47;;;;;;;10.77;9.60;;;2.50;1.00;;;;;;5065686;28;20228;-65
2023/01/23 01:10:14;;;;;;;10.33;9.50;;;2.50;1.00;;;;;;5051214;28;20191;-65
2023/01/23 01:12:40;;;;;;;11.00;9.43;;;2.50;1.00;;;;;;5055314;28;20189;-65
2023/01/23 01:15:06;;;;;;;11.47;9.07;;;2.50;1.00;;;;;;5070056;28;20194;-65
2023/01/23 01:17:32;;;;;;;9.30;8.60;;;2.50;1.00;;;;;;5068934;28;20197;-65
2023/01/23 01:19:57;;;;;;;9.90;9.13;;;2.50;1.00;;;;;;5053804;28;20636;-64
2023/01/23 01:22:23;;;;;;;8.73;8.13;;;2.50;1.00;;;;;;5054194;28;20658;-64
2023/01/23 01:24:49;;;;;;;9.93;9.03;;;2.50;1.00;;;;;;5074054;28;20229;-64
2023/01/23 01:27:14;;;;;;;9.70;8.73;;;2.40;1.00;;;;;;5074191;28;20170;-64
2023/01/23 01:29:40;;;;;;;10.83;9.63;;;2.40;1.00;;;;;;5054955;28;20229;-65
2023/01/23 01:32:05;;;;;;;9.33;8.63;;;2.40;1.00;;;;;;5054330;28;20206;-64
2023/01/23 01:34:31;;;;;;;10.97;10.00;;;2.30;1.00;;;;;;5070659;28;20577;-64
2023/01/23 01:36:57;;;;;;;10.10;9.20;;;2.20;1.00;;;;;;5074108;28;20177;-65
2023/01/23 01:39:22;;;;;;;9.47;8.73;;;2.10;1.00;;;;;;5057103;28;20396;-65
2023/01/23 01:41:48;;;;;;;10.00;8.80;;;2.20;1.00;;;;;;5054995;28;20167;-64
2023/01/23 01:44:23;;;;;;;10.60;9.67;;;2.10;1.00;;;;;;5052130;28;20242;-64
2023/01/23 01:46:49;;;;;;;9.53;8.80;;;2.20;1.00;;;;;;5051694;28;20170;-64
2023/01/23 01:49:20;;;;;;;9.80;8.93;;;2.20;1.00;;;;;;5063359;28;20311;-65
2023/01/23 01:52:05;;;;;;;11.20;9.57;;;2.20;1.00;;;;;;5073524;28;20200;-64
2023/01/23 01:54:41;;;;;;;9.43;8.63;;;2.20;1.00;;;;;;5057031;28;20210;-65
2023/01/23 01:57:12;;;;;;;9.93;9.13;;;2.30;1.00;;;;;;5051111;28;20543;-64
2023/01/23 01:59:43;;;;;;;10.70;9.70;;;2.30;1.00;;;;;;5064715;28;20178;-64
2023/01/23 02:02:17;;;;;;;11.67;10.43;;;2.30;1.00;;;;;;5070984;28;20162;-64
2023/01/23 02:04:48;;;;;;;9.97;9.17;;;2.30;1.00;;;;;;5056571;28;20209;-64
2023/01/23 02:07:24;;;;;;;9.90;8.90;;;2.30;1.00;;;;;;5051043;28;20178;-65
2023/01/23 02:09:51;;;;;;;10.63;9.83;;;2.30;1.00;;;;;;5065422;28;20670;-64
2023/01/23 02:12:16;;;;;;;10.03;9.33;;;2.30;1.00;;;;;;5075958;28;20170;-65
2023/01/23 02:14:42;;;;;;;11.00;9.90;;;2.30;1.00;;;;;;5061803;28;20582;-65
2023/01/23 02:17:09;;;;;;;10.00;9.27;;;2.30;1.00;;;;;;5054586;28;20655;-65
2023/01/23 02:19:47;;;;;;;10.47;9.37;;;2.30;1.00;;;;;;5064932;28;20236;-65
2023/01/23 02:22:49;;;;;;;10.07;9.17;;;2.40;1.00;;;;;;5078517;28;20245;-65
2023/01/23 02:25:27;;;;;;;11.57;10.67;;;2.40;1.00;;;;;;5060570;28;20218;-65
2023/01/23 02:27:53;;;;;;;9.87;9.17;;;2.40;1.00;;;;;;5059623;28;20645;-65
2023/01/23 02:30:19;;;;;;;9.63;9.03;;;2.30;1.00;;;;;;5058406;28;20174;-64
2023/01/23 02:32:45;;;;;;;10.80;10.03;;;2.30;1.00;;;;;;5070265;28;20178;-62
2023/01/23 02:35:19;;;;;;;12.13;10.93;;;2.30;1.00;;;;;;5077342;28;20194;-64
2023/01/23 02:37:47;;;;;;;10.77;9.87;;;2.30;1.00;;;;;;5065805;28;20179;-64
2023/01/23 02:40:13;;;;;;;12.90;11.57;;;2.30;1.00;;;;;;5057470;28;20174;-64
2023/01/23 02:42:41;;;;;;;10.87;10.07;;;2.30;1.00;;;;;;5067968;28;20178;-64
2023/01/23 02:45:07;;;;;;;12.20;10.93;;;2.40;1.00;;;;;;5077845;28;20205;-64
2023/01/23 02:47:34;;;;;;;11.83;10.37;;;2.40;1.00;;;;;;5067842;28;20175;-65
2023/01/23 02:49:59;;;;;;;12.77;11.53;;;2.40;1.00;;;;;;5056893;28;20171;-64
2023/01/23 02:52:25;;;;;;;10.70;10.00;;;2.40;1.00;;;;;;5064483;28;20178;-64
2023/01/23 02:54:51;;;;;;;13.37;11.57;;;2.40;1.00;;;;;;5077413;28;20210;-64
2023/01/23 02:57:16;;;;;;;11.03;9.97;;;2.30;1.00;;;;;;5071660;28;20536;-64
2023/01/23 03:02:26;;;;;;;13.23;12.17;;;2.30;1.00;;;;;;5062317;28;20185;-64
2023/01/23 03:04:52;;;;;;;12.37;10.20;;;2.30;1.00;;;;;;5076542;28;20194;-65
2023/01/23 03:07:18;;;;;;;10.57;9.87;;;2.30;1.00;;;;;;5073889;28;20660;-64
2023/01/23 03:09:46;;;;;;;12.23;11.17;;;2.30;1.00;;;;;;5056994;28;20179;-65
2023/01/23 03:12:13;;;;;;;15.20;12.47;;;2.20;1.00;;;;;;5059067;28;20174;-65
2023/01/23 03:14:40;;;;;;;11.33;10.43;;;2.20;1.00;;;;;;5076904;28;20690;-65
2023/01/23 03:17:06;;;;;;;12.50;10.90;;;2.20;1.00;;;;;;5075326;28;20240;-64
2023/01/23 03:19:31;;;;;;;12.40;11.10;;;2.10;1.00;;;;;;5056184;28;20187;-65
2023/01/23 03:21:57;;;;;;;11.37;10.40;;;2.20;1.00;;;;;;5056345;28;20233;-64
2023/01/23 03:24:23;;;;;;;12.57;11.47;;;2.10;1.00;;;;;;5071764;28;20235;-64
2023/01/23 03:26:51;;;;;;;11.40;10.30;;;2.00;1.00;;;;;;5073263;28;20544;-64
2023/01/23 03:32:07;;;;;;;13.10;11.77;;;1.80;1.00;;;;;;5053230;28;20178;-64
2023/01/23 03:34:33;;;;;;;12.27;11.33;;;1.60;1.00;;;;;;5072354;28;20701;-64
2023/01/23 03:37:00;;;;;;;10.47;9.70;;;1.50;1.00;;;;;;5073012;28;20679;-64
2023/01/23 03:42:10;;;;;;;11.00;10.20;;;1.20;1.00;;;;;;5055751;28;20592;-64
2023/01/23 03:44:36;;;;;;;11.33;10.33;;;1.10;1.00;;;;;;5071965;28;20248;-64
2023/01/23 03:47:02;;;;;;;11.33;10.20;;;1.00;1.00;;;;;;5074549;28;20185;-64
2023/01/23 03:49:29;;;;;;;8.80;8.23;;;0.90;1.00;;;;;;5058256;28;20199;-65
2023/01/23 03:51:54;;;;;;;9.60;8.87;;;0.80;1.00;;;;;;5063677;28;20613;-64
2023/01/23 03:54:20;;;;;;;10.40;9.53;;;0.80;28.90;;;;;;5056617;28;20286;-65
2023/01/23 03:56:46;;;;;;;11.20;10.17;;;0.80;80.30;;;;;;5051366;28;20185;-64
2023/01/23 03:59:11;;;;;;;9.23;8.63;;;0.70;99.40;;;;;;5052546;28;20178;-66
2023/01/23 04:01:37;;;;;;;11.00;10.23;;;0.70;99.90;;;;;;5062425;28;20182;-65
2023/01/23 04:04:03;;;;;;;10.23;9.33;;;0.80;99.90;;;;;;5072517;28;20628;-64
2023/01/23 04:06:29;;;;;;;9.70;8.93;;;0.80;99.90;;;;;;5065431;28;20742;-65
2023/01/23 04:08:57;;;;;;;12.07;11.03;;;0.90;99.90;;;;;;5052367;28;20183;-65
2023/01/23 04:11:23;;;;;;;10.33;9.73;;;1.00;99.90;;;;;;5057899;28;20189;-66
2023/01/23 04:13:49;;;;;;;10.80;10.10;;;1.20;99.90;;;;;;5076225;28;20315;-65
2023/01/23 04:16:14;;;;;;;10.83;9.93;;;1.30;99.90;;;;;;5070991;28;20687;-65
2023/01/23 04:18:40;;;;;;;10.07;9.33;;;1.40;99.90;;;;;;5056110;28;20171;-65
2023/01/23 04:21:06;;;;;;;9.80;8.93;;;1.50;99.90;;;;;;5057365;28;20644;-65
2023/01/23 04:23:31;;;;;;;11.50;10.23;;;1.60;99.90;;;;;;5072028;28;20208;-65
2023/01/23 04:25:57;;;;;;;11.77;10.80;;;1.60;99.90;;;;;;5071378;28;20204;-65
2023/01/23 04:28:23;;;;;;;11.50;10.60;;;1.70;99.90;;;;;;5052139;28;20171;-65
2023/01/23 04:30:50;;;;;;;12.03;11.03;;;1.70;99.90;;;;;;5051872;28;20236;-65
2023/01/23 04:33:16;;;;;;;11.50;10.27;;;1.80;99.90;;;;;;5070754;28;20589;-66
2023/01/23 04:35:57;;;;;;;9.77;8.87;;;1.80;99.90;;;;;;5071204;28;20680;-65
2023/01/23 04:38:24;;;;;;;11.73;10.80;;;1.80;99.90;;;;;;5052485;28;20205;-65
2023/01/23 04:40:51;;;;;;;11.03;10.17;;;1.80;99.90;;;;;;5051643;28;20175;-65
2023/01/23 04:43:17;;;;;;;11.30;10.47;;;1.80;99.90;;;;;;5069574;28;20192;-65
2023/01/23 04:45:43;;;;;;;10.53;9.83;;;1.80;99.90;;;;;;5070417;28;20691;-65
2023/01/23 04:48:11;;;;;;;13.40;11.83;;;1.80;99.90;;;;;;5056817;28;20240;-65
2023/01/23 04:50:36;;;;;;;10.97;9.63;;;1.80;99.90;;;;;;5056564;28;20551;-65
2023/01/23 04:53:03;;;;;;;10.47;9.77;;;1.70;99.90;;;;;;5071731;28;20228;-65
2023/01/23 04:55:28;;;;;;;10.27;9.47;;;1.70;99.90;;;;;;5070950;28;20197;-65
2023/01/23 04:57:54;;;;;;;10.13;9.30;;;1.50;99.90;;;;;;5072503;28;20190;-65
2023/01/23 05:00:20;;;;;;;9.97;9.20;;;1.50;99.90;;;;;;5070285;28;20180;-64
2023/01/23 05:02:47;;;;;;;10.90;9.87;;;1.50;99.90;;;;;;5051620;28;20686;-64
2023/01/23 05:05:13;;;;;;;9.33;8.67;;;1.50;99.90;;;;;;5051618;28;20573;-64
2023/01/23 05:07:39;;;;;;;10.43;9.73;;;1.60;99.90;;;;;;5070789;28;20523;-65
2023/01/23 05:10:05;;;;;;;9.87;9.20;;;1.60;99.90;;;;;;5071413;28;20219;-65
2023/01/23 05:12:31;;;;;;;11.50;10.53;;;1.60;99.90;;;;;;5053421;28;20191;-65
2023/01/23 05:14:57;;;;;;;10.27;9.47;;;1.70;99.90;;;;;;5052745;28;20714;-65
2023/01/23 05:17:22;;;;;;;13.20;10.63;;;1.70;99.90;;;;;;5051599;28;20236;-65
2023/01/23 05:19:48;;;;;;;11.33;10.37;;;1.70;99.90;;;;;;5052237;28;20615;-65
2023/01/23 05:22:14;;;;;;;10.50;9.70;;;1.70;99.90;;;;;;5066424;28;20182;-65
2023/01/23 05:24:39;;;;;;;11.60;10.80;;;1.70;99.90;;;;;;5071569;28;20284;-65
2023/01/23 05:27:05;;;;;;;9.80;9.07;;;1.70;99.90;;;;;;5058382;28;20186;-64
2023/01/23 05:29:30;;;;;;;11.13;10.10;;;1.60;99.90;;;;;;5051109;28;20175;-65
2023/01/23 05:31:56;;;;;;;12.43;9.60;;;1.50;99.90;;;;;;5051084;28;20186;-65
2023/01/23 05:34:22;;;;;;;11.53;10.67;;;1.50;99.90;;;;;;5051239;28;20333;-64
2023/01/23 05:36:47;;;;;;;9.17;8.67;;;1.40;99.90;;;;;;5058808;28;20182;-64
2023/01/23 05:39:13;;;;;;;11.70;10.70;;;1.20;99.90;;;;;;5071318;28;20182;-65
2023/01/23 05:41:38;;;;;;;11.20;10.50;;;1.20;99.90;;;;;;5063273;28;20205;-64
2023/01/23 05:44:04;;;;;;;11.63;10.87;;;1.10;99.90;;;;;;5051132;28;20198;-64
2023/01/23 05:46:30;;;;;;;10.27;9.67;;;0.90;74.20;;;;;;5056934;28;20270;-64
2023/01/23 05:48:55;;;;;;;10.20;9.33;;;0.80;45.70;;;;;;5075044;28;20178;-64
2023/01/23 05:51:22;;;;;;;9.37;8.67;;;0.70;51.10;;;;;;5070697;28;20206;-65
2023/01/23 05:53:48;;;;;;;10.57;9.53;;;1.10;42.90;;;;;;5054972;28;20199;-64
2023/01/23 05:56:14;;;;;;;10.20;9.40;;;0.50;67.90;;;;;;5056801;28;20240;-64
2023/01/23 05:58:39;;;;;;;8.67;8.07;;;0.40;90.10;;;;;;5075023;28;20198;-64
2023/01/23 06:01:05;;;;;;;11.70;10.50;;;0.40;99.90;;;;;;5073705;28;20223;-64
2023/01/23 06:03:31;;;;;;;9.23;8.50;;;0.40;99.90;;;;;;5054764;28;20186;-65
2023/01/23 06:05:59;;;;;;;9.97;9.17;;;0.50;99.90;;;;;;5054821;28;20195;-65
2023/01/23 06:08:24;;;;;;;8.47;7.93;;;0.40;99.90;;;;;;5073772;28;20186;-64
2023/01/23 06:10:50;;;;;;;10.27;9.40;;;0.40;99.90;;;;;;5074529;28;20185;-64
2023/01/23 06:13:15;;;;;;;11.00;10.07;;;0.40;99.90;;;;;;5058782;28;20667;-64
2023/01/23 06:15:41;;;;;;;11.00;9.97;;;0.40;99.90;;;;;;5055990;28;20275;-65
2023/01/23 06:18:07;;;;;;;9.73;8.90;;;0.30;99.90;;;;;;5069938;28;20261;-65
2023/01/23 06:20:32;;;;;;;10.13;9.20;;;0.30;99.90;;;;;;5074527;28;20178;-64
2023/01/23 06:22:58;;;;;;;9.77;9.13;;;0.30;99.90;;;;;;5060342;28;20187;-64
2023/01/23 06:25:23;;;;;;;13.17;9.53;;;0.30;99.90;;;;;;5054424;28;20186;-65
2023/01/23 06:27:49;;;;;;;9.47;8.90;;;0.30;99.90;;;;;;5066160;28;20631;-65
2023/01/23 06:30:14;;;;;;;10.13;9.40;;;0.30;99.90;;;;;;5074145;28;20178;-64
2023/01/23 06:32:40;;;;;;;10.70;9.83;;;0.40;99.90;;;;;;5063956;28;20186;-64
2023/01/23 06:35:06;;;;;;;9.83;9.33;;;0.40;99.90;;;;;;5054197;28;20234;-65
2023/01/23 06:37:32;;;;;;;10.13;9.40;;;0.30;99.90;;;;;;5062991;28;20240;-65
2023/01/23 06:39:57;;;;;;;10.53;9.60;;;0.40;99.90;;;;;;5073862;28;20205;-63
2023/01/23 06:42:23;;;;;;;8.97;8.30;;;0.40;99.90;;;;;;5073911;28;20178;-63
2023/01/23 06:44:48;;;;;;;10.30;9.33;;;0.40;99.90;;;;;;5070517;28;20297;-64
2023/01/23 06:47:15;;;;;;;10.30;9.43;;;0.50;99.90;;;;;;5059911;28;20187;-63
2023/01/23 06:49:41;;;;;;;14.03;9.80;;;0.50;99.90;;;;;;5055234;28;20190;-63
2023/01/23 06:52:06;;;;;;;9.47;8.77;;;0.60;99.90;;;;;;5069717;28;20663;-64
2023/01/23 06:54:32;;;;;;;8.47;8.07;;;0.70;99.90;;;;;;5074100;28;20202;-64
2023/01/23 06:56:58;;;;;;;9.47;8.83;;;0.80;99.90;;;;;;5060141;28;20707;-64
2023/01/23 06:59:23;;;;;;;10.00;9.27;;;0.90;99.90;;;;;;5052737;28;20659;-64
2023/01/23 07:01:49;;;;;;;10.30;9.47;;;1.10;99.90;;;;;;5065682;28;20182;-64
2023/01/23 07:04:15;;;;;;;9.33;8.73;;;1.10;99.90;;;;;;5073881;28;20727;-64
2023/01/23 07:06:40;;;;;;;10.47;9.63;;;1.20;99.90;;;;;;5073930;28;20192;-64
2023/01/23 07:09:06;;;;;;;13.33;11.00;;;1.20;99.90;;;;;;5069606;28;20174;-65
2023/01/23 07:11:32;;;;;;;11.90;10.93;;;1.20;99.90;;;;;;5061697;28;20185;-64
2023/01/23 07:13:58;;;;;;;10.37;9.67;;;1.20;99.90;;;;;;5033248;28;20593;-65
2023/01/23 07:16:24;;;;;;;10.33;9.43;;;1.20;99.90;;;;;;5040716;28;20251;-64
2023/01/23 07:18:49;;;;;;;12.07;10.97;;;1.30;99.90;;;;;;5053483;28;20167;-64
2023/01/23 07:21:15;;;;;;;12.53;11.33;;;1.30;99.90;;;;;;5053641;28;20179;-64
2023/01/23 07:23:41;;;;;;;10.87;10.17;;;1.40;99.90;;;;;;5053272;28;20186;-64
2023/01/23 07:26:08;;;;;;;12.60;10.17;;;1.40;99.90;;;;;;5053693;28;20199;-64
2023/01/23 07:28:35;;;;;;;11.60;10.33;;;1.50;99.90;;;;;;5053864;28;20171;-64
2023/01/23 07:31:01;;;;;;;10.67;9.77;;;1.50;99.90;;;;;;5055218;28;20175;-64
2023/01/23 07:33:26;;;;;;;10.87;10.03;;;1.50;99.90;;;;;;5073360;28;20198;-64
2023/01/23 07:35:52;;;;;;;10.17;9.27;;;1.60;99.90;;;;;;5071658;28;20213;-64
2023/01/23 07:38:18;;;;;;;10.63;9.87;;;1.60;99.90;;;;;;5073039;28;20170;-64
2023/01/23 07:40:44;;;;;;;11.10;10.17;;;1.60;99.90;;;;;;5072377;28;20200;-64
2023/01/23 07:43:11;;;;;;;11.87;10.80;;;1.60;99.90;;;;;;5073375;28;20170;-64
2023/01/23 07:45:36;;;;;;;11.87;10.67;;;1.60;99.90;;;;;;5075935;23;20717;-63
2023/01/23 07:48:02;;;;;;;9.37;8.80;;;1.70;99.90;;;;;;5032736;28;20195;-63
2023/01/23 07:50:28;;;;;;;9.47;8.70;;;1.70;99.90;;;;;;5031492;28;20210;-63
2023/01/23 07:52:54;;;;;;;9.77;8.90;;;1.70;99.90;;;;;;5032551;28;20207;-63
2023/01/23 07:55:19;;;;;;;12.03;10.70;;;1.80;99.90;;;;;;5032291;28;20205;-63
2023/01/23 07:57:46;;;;;;;9.70;8.90;;;1.80;99.90;;;;;;5032465;28;20226;-63
2023/01/23 08:00:11;;;;;;;11.43;9.43;;;1.90;99.90;;;;;;5032116;28;20214;-63
2023/01/23 08:02:38;;;;;;;10.20;9.43;;;1.90;99.90;;;;;;5032407;28;20207;-62
2023/01/23 08:05:04;;;;;;;9.53;8.77;;;2.00;99.90;;;;;;5032334;28;20585;-63
2023/01/23 08:07:30;;;;;;;14.07;11.70;;;2.10;99.90;;;;;;5031990;28;20265;-62
2023/01/23 08:09:56;;;;;;;11.53;10.63;;;2.10;99.90;;;;;;5031706;28;20656;-63
2023/01/23 08:12:21;;;;;;;15.83;10.80;;;2.10;99.90;;;;;;5027908;28;20203;-62
2023/01/23 08:14:47;;;;;;;9.23;8.53;;;2.20;99.90;;;;;;5012723;28;20253;-63
2023/01/23 08:17:13;;;;;;;14.00;11.43;;;2.20;99.90;;;;;;5026969;28;20191;-63
2023/01/23 08:19:38;;;;;;;10.37;9.50;;;2.30;99.30;;;;;;5032084;28;20168;-61
2023/01/23 08:22:04;;;;;;;12.60;11.50;;;2.30;89.00;;;;;;5014291;28;20263;-63
2023/01/23 08:24:30;;;;;;;12.77;11.70;;;2.40;57.50;;;;;;5032189;28;20309;-63
2023/01/23 08:26:55;;;;;;;18.27;12.10;;;2.40;42.00;;;;;;5031747;28;20211;-63
2023/01/23 08:29:21;;;;;;;15.17;10.83;;;2.40;14.00;;;;;;5031901;28;20254;-63
2023/01/23 08:31:47;;;;;;;10.93;9.13;;;2.50;1.00;;;;;;5031978;28;20182;-63
2023/01/23 08:34:12;;;;;;;10.10;9.13;;;2.50;1.00;;;;;;5031770;28;20199;-63
2023/01/23 08:36:38;;;;;;;10.27;9.23;;;2.60;1.00;;;;;;5031838;28;20237;-62
2023/01/23 08:39:04;;;;;;;9.50;8.87;;;2.60;1.00;;;;;;5031990;28;20633;-63
2023/01/23 08:41:29;;;;;;;9.10;8.43;;;2.70;1.00;;;;;;5031425;28;20207;-63
2023/01/23 08:43:57;;;;;;;11.90;10.93;;;2.80;1.00;;;;;;5032361;28;20262;-63
2023/01/23 08:46:22;;;;;;;11.30;10.23;;;2.90;1.00;;;;;;5029400;28;20206;-63
2023/01/23 08:48:48;;;;;;;13.40;9.53;;;2.90;1.00;;;;;;5028381;28;20579;-62
2023/01/23 08:51:14;;;;;;;10.87;9.87;;;3.00;1.00;;;;;;5017854;28;20184;-63
2023/01/23 08:53:40;;;;;;;10.77;9.57;;;3.00;1.00;;;;;;5030898;28;20219;-62
2023/01/23 08:56:17;;;;;;;10.60;9.37;;;3.10;1.00;;;;;;5031228;28;20278;-63
2023/01/23 08:58:44;;;;;;;11.23;10.30;;;3.10;1.00;;;;;;5012047;28;20618;-63
2023/01/23 09:01:11;;;;;;;11.60;10.67;;;3.10;1.00;;;;;;5011711;28;20195;-62
2023/01/23 09:03:37;;;;;;;10.57;9.73;;;3.10;1.00;;;;;;5031445;28;20258;-63
2023/01/23 09:06:03;;;;;;;12.47;10.17;;;3.20;99.90;;;;;;5030667;28;20206;-63
2023/01/23 09:08:29;;;;;;;12.67;11.40;;;3.20;99.90;;;;;;5031462;28;20183;-63
2023/01/23 09:11:05;;;;;;;14.63;12.43;;;3.30;99.90;;;;;;5031215;28;20611;-63
2023/01/23 09:13:32;;;;;;;13.70;10.73;;;3.20;99.90;;;;;;5031072;28;20241;-63
2023/01/23 09:15:57;;;;;;;12.30;11.03;;;3.20;99.90;;;;;;5031581;28;20188;-63
2023/01/23 09:18:24;;;;;;;13.00;11.70;;;3.30;99.90;;;;;;5028548;28;20187;-63
2023/01/23 09:20:50;;;;;;;15.90;12.43;;;3.40;99.90;;;;;;5031698;28;20254;-63
2023/01/23 09:23:16;;;;;;;12.43;11.43;;;3.40;99.90;;;;;;5019351;28;20190;-62
2023/01/23 09:25:42;;;;;;;13.83;12.00;;;3.40;99.90;;;;;;5038029;28;20191;-63
2023/01/23 09:28:08;;;;;;;11.90;11.10;;;3.40;99.90;;;;;;5037575;28;20187;-63
2023/01/23 09:30:33;;;;;;;13.60;12.43;;;3.40;99.90;;;;;;5037692;28;20183;-63
2023/01/23 09:32:59;;;;;;;13.43;12.00;;;3.40;99.90;;;;;;5037569;28;20179;-63
2023/01/23 09:35:25;;;;;;;10.70;9.90;;;3.40;99.90;;;;;;5037966;28;20199;-62
2023/01/23 09:38:00;;;;;;;13.53;12.37;;;3.50;99.90;;;;;;5037542;28;20541;-63
2023/01/23 09:40:37;;;;;;;14.70;12.17;;;3.50;99.90;;;;;;5037937;28;20193;-63
2023/01/23 09:43:15;;;;;;;14.30;12.83;;;3.60;99.90;;;;;;5037741;28;20674;-63
2023/01/23 09:45:46;;;;;;;12.97;11.97;;;3.60;99.90;;;;;;5037803;28;20202;-63
2023/01/23 09:48:17;;;;;;;14.47;13.10;;;3.60;26.80;;;;;;5037480;28;20185;-63
2023/01/23 09:50:54;;;;;;;12.37;11.57;;;3.60;1.00;;;;;;5023178;28;20188;-61
2023/01/23 09:53:23;;;;;;;15.10;13.67;;;3.60;1.00;;;;;;5030555;28;20309;-63
2023/01/23 09:55:56;;;;;;;15.83;12.40;;;3.60;54.70;;;;;;5037397;28;20218;-63
2023/01/23 09:58:27;;;;;;;14.03;13.17;;;3.70;99.90;;;;;;5037676;28;20188;-63
2023/01/23 10:00:52;;;;;;;11.47;10.73;;;3.60;2.50;;;;;;5037238;28;20258;-63
2023/01/23 10:03:18;;;;;;;15.20;13.67;;;3.70;44.60;;;;;;5037446;28;20274;-64
2023/01/23 10:06:02;;;;;;;12.10;11.20;;;3.70;1.00;;;;;;5037356;28;20241;-62
2023/01/23 10:08:50;;;;;;;10.87;10.00;;;3.80;1.00;;;;;;5037469;28;20191;-63
2023/01/23 10:11:26;;;;;;;13.67;12.33;;;3.80;1.00;;;;;;5037138;28;20187;-63
2023/01/23 10:14:09;;;;;;;13.00;10.80;;;3.90;99.90;;;;;;5037053;28;20207;-63
2023/01/23 10:16:53;;;;;;;11.97;10.87;;;3.90;99.90;;;;;;5037702;28;20191;-63
2023/01/23 10:19:37;;;;;;;16.53;11.37;;;3.90;1.00;;;;;;5036883;28;20191;-63
2023/01/23 10:22:27;;;;;;;11.67;10.63;;;3.90;99.90;;;;;;5033287;28;21008;-63
2023/01/23 10:24:56;;;;;;;14.17;12.67;;;3.90;99.90;;;;;;5017447;28;20188;-63
2023/01/23 10:27:29;;;;;;;12.50;11.40;;;3.80;73.80;;;;;;5018580;28;20180;-63
2023/01/23 10:30:20;;;;;;;12.73;11.10;;;3.80;99.90;;;;;;5036998;28;20189;-63
2023/01/23 10:32:56;;;;;;;11.97;10.83;;;3.80;1.00;;;;;;5036333;28;20191;-62
2023/01/23 10:35:49;;;;;;;12.40;11.33;;;3.80;70.60;;;;;;5033970;28;20199;-63
2023/01/23 10:38:30;;;;;;;11.50;10.47;;;3.80;99.90;;;;;;5033801;28;20179;-63
2023/01/23 10:41:13;;;;;;;10.53;9.43;;;3.80;99.90;;;;;;5033838;28;20262;-62
2023/01/23 10:43:45;;;;;;;12.60;11.23;;;3.90;1.00;;;;;;5015832;28;20183;-63
2023/01/23 10:46:19;;;;;;;12.67;10.47;;;3.80;1.00;;;;;;5034015;28;20688;-63
2023/01/23 10:48:47;;;;;;;13.87;10.97;;;3.90;99.90;;;;;;5033841;28;20183;-63
2023/01/23 10:51:35;;;;;;;15.50;11.37;;;3.90;1.00;;;;;;5032279;28;20172;-62
2023/01/23 10:54:17;;;;;;;10.87;9.87;;;3.90;1.00;;;;;;5031947;28;20218;-62
2023/01/23 10:56:52;;;;;;;9.40;8.47;;;3.90;99.90;;;;;;5013325;28;20188;-63
2023/01/23 10:59:35;;;;;;;11.00;10.23;;;4.00;1.00;;;;;;5027041;28;20171;-63
2023/01/23 11:02:01;;;;;;;11.23;10.30;;;4.00;1.00;;;;;;5033317;28;20262;-63
2023/01/23 11:04:29;;;;;;;12.60;9.93;;;4.10;99.90;;;;;;5033379;28;20333;-60
2023/01/23 11:07:15;;;;;;;9.57;8.70;;;4.10;99.90;;;;;;5033703;28;20681;-63
2023/01/23 11:09:51;;;;;;;10.80;9.80;;;4.20;99.90;;;;;;5033016;28;20186;-63
2023/01/23 11:12:21;;;;;;;12.20;10.70;;;4.30;66.10;;;;;;5033653;28;20585;-63
2023/01/23 11:14:47;;;;;;;9.60;8.80;;;4.30;99.90;;;;;;5032920;28;20297;-63
2023/01/23 11:17:40;;;;;;;11.90;8.60;;;4.40;1.00;;;;;;5033048;28;20211;-63
2023/01/23 11:20:22;;;;;;;10.87;9.83;;;4.40;86.50;;;;;;5031043;28;20195;-63
2023/01/23 11:22:59;;;;;;;9.73;8.77;;;4.30;66.90;;;;;;5033516;28;20179;-63
2023/01/23 11:25:28;;;;;;;9.07;8.27;;;4.30;1.00;;;;;;5033180;28;20743;-63
2023/01/23 11:27:58;;;;;;;8.70;8.00;;;4.40;30.30;;;;;;5026841;28;20207;-63
2023/01/23 11:30:33;;;;;;;9.40;8.47;;;4.40;1.00;;;;;;5031790;28;20274;-63
2023/01/23 11:33:11;;;;;;;11.17;10.30;;;4.50;58.20;;;;;;5032960;28;20178;-63
2023/01/23 11:36:00;;;;;;;13.03;10.17;;;4.50;1.00;;;;;;5033018;28;20202;-63
2023/01/23 11:38:31;;;;;;;8.97;8.07;;;4.70;1.00;;;;;;5032886;28;20178;-61
2023/01/23 11:40:57;;;;;;;11.30;10.17;;;4.70;99.90;;;;;;5028378;28;20172;-63
2023/01/23 11:43:23;;;;;;;8.70;8.00;;;4.90;99.90;;;;;;5032927;28;20533;-63
2023/01/23 11:46:16;;;;;;;8.93;8.10;;;5.00;99.90;;;;;;5032091;28;20214;-62
2023/01/23 11:49:14;;;;;;;11.20;8.77;;;5.00;36.40;;;;;;5013271;28;20551;-63
2023/01/23 11:51:59;;;;;;;9.83;9.13;;;5.00;1.00;;;;;;5018123;28;20190;-63
2023/01/23 11:54:43;;;;;;;10.47;9.47;;;5.00;40.10;;;;;;5032711;28;20204;-62
2023/01/23 11:57:22;;;;;;;8.93;8.10;;;5.00;68.70;;;;;;5032191;28;20179;-63
2023/01/23 12:00:32;;;;;;;9.63;8.90;;;5.10;1.00;;;;;;5031995;28;20217;-63
2023/01/23 12:03:25;;;;;;;9.03;8.33;;;5.10;1.00;;;;;;4996933;28;20568;-63
2023/01/23 12:06:28;;;;;;;8.20;7.57;;;5.20;1.00;;;;;;5026514;28;20608;-63
2023/01/23 12:09:16;;;;;;;8.97;8.17;;;5.30;1.00;;;;;;5032403;28;20178;-63
2023/01/23 12:11:44;;;;;;;9.60;8.60;;;5.40;1.00;;;;;;5032296;28;20176;-63
2023/01/23 12:14:16;;;;;;;9.40;8.50;;;5.40;1.00;;;;;;5032164;28;20199;-65
2023/01/23 12:17:00;;;;;;;8.53;7.93;;;5.50;1.00;;;;;;5031772;28;20242;-64
2023/01/23 12:20:04;;;;;;;9.23;8.60;;;5.40;1.00;;;;;;5031961;28;20640;-62
2023/01/23 12:22:40;;;;;;;8.43;7.63;;;5.40;1.00;;;;;;4932483;29;20186;-62
2023/01/23 12:25:33;;;;;;;8.77;7.87;;;5.40;1.00;;;;;;4937452;29;20209;-61
2023/01/23 12:28:24;;;;;;;7.70;7.00;;;5.50;1.00;;;;;;5009461;28;20195;-62
2023/01/23 12:30:55;;;;;;;7.87;7.17;;;5.40;1.00;;;;;;5031596;28;20183;-62
2023/01/23 12:34:00;;;;;;;8.03;7.43;;;5.30;1.00;;;;;;5032093;28;20203;-62
2023/01/23 12:36:26;;;;;;;7.40;6.93;;;5.30;1.00;;;;;;5031877;28;20202;-62
2023/01/23 12:39:03;;;;;;;7.60;6.90;;;5.10;1.00;;;;;;5031826;28;20171;-62
2023/01/23 12:41:39;;;;;;;7.17;6.83;;;5.00;1.00;;;;;;5031465;28;20190;-62
2023/01/23 12:44:13;;;;;;;6.40;6.00;;;5.00;1.00;;;;;;5031589;28;20258;-62
2023/01/23 12:47:12;;;;;;;7.70;7.20;;;5.00;1.00;;;;;;5031591;28;20220;-64
2023/01/23 12:50:01;;;;;;;7.60;7.10;;;4.90;1.00;;;;;;5022349;28;20183;-62
2023/01/23 12:52:32;;;;;;;7.53;7.00;;;4.90;1.00;;;;;;5012087;28;20176;-62
2023/01/23 12:55:15;;;;;;;7.13;6.63;;;4.90;1.00;;;;;;5011639;28;20211;-63
2023/01/23 12:57:50;;;;;;;7.47;7.03;;;4.90;1.00;;;;;;5011061;28;20195;-61
2023/01/23 13:00:35;;;;;;;14.50;7.63;;;4.90;1.00;;;;;;5012996;28;20172;-63
2023/01/23 13:03:06;;;;;;;7.93;7.10;;;4.90;1.00;;;;;;5031300;28;20175;-63
2023/01/23 13:05:46;;;;;;;8.10;7.37;;;4.80;1.00;;;;;;5031229;28;20589;-62
2023/01/23 13:08:24;;;;;;;7.47;6.97;;;4.80;1.00;;;;;;5027050;28;20174;-63
2023/01/23 13:11:43;;;;;;;7.17;6.67;;;4.80;1.00;;;;;;5030892;28;20620;-62
2023/01/23 13:14:23;;;;;;;7.60;7.00;;;4.80;1.00;;;;;;5031203;28;20242;-63